sensor_id;sensor_type;location;lat;lon;timestamp;temperature;humidity
52675;DHT22;38569;52.722;6.440;2024-01-27T00:00:26;3.10;99.90
52675;DHT22;38569;52.722;6.440;2024-01-27T00:02:51;3.10;99.90
52675;DHT22;38569;52.722;6.440;2024-01-27T00:05:17;3.10;99.90
52675;DHT22;38569;52.722;6.440;2024-01-27T00:07:43;3.20;99.90
52675;DHT22;38569;52.722;6.440;2024-01-27T00:10:09;3.10;99.90
52675;DHT22;38569;52.722;6.440;2024-01-27T00:12:35;3.10;99.90
52675;DHT22;38569;52.722;6.440;2024-01-27T00:15:01;3.10;99.90
52675;DHT22;38569;52.722;6.440;2024-01-27T00:17:27;3.10;99.90
52675;DHT22;38569;52.722;6.440;2024-01-27T00:19:54;3.10;99.90
52675;DHT22;38569;52.722;6.440;2024-01-27T00:22:20;3.10;99.90
52675;DHT22;38569;52.722;6.440;2024-01-27T00:24:48;3.10;99.90
52675;DHT22;38569;52.722;6.440;2024-01-27T00:27:14;3.30;99.90
52675;DHT22;38569;52.722;6.440;2024-01-27T00:29:39;3.20;99.90
52675;DHT22;38569;52.722;6.440;2024-01-27T00:32:05;3.20;99.90
52675;DHT22;38569;52.722;6.440;2024-01-27T00:34:31;3.20;99.90
52675;DHT22;38569;52.722;6.440;2024-01-27T00:36:57;3.20;99.90
52675;DHT22;38569;52.722;6.440;2024-01-27T00:39:22;3.20;99.90
52675;DHT22;38569;52.722;6.440;2024-01-27T00:41:48;3.20;99.90
52675;DHT22;38569;52.722;6.440;2024-01-27T00:44:14;3.20;99.90
52675;DHT22;38569;52.722;6.440;2024-01-27T00:46:40;3.30;99.90
52675;DHT22;38569;52.722;6.440;2024-01-27T00:49:06;3.30;99.90
52675;DHT22;38569;52.722;6.440;2024-01-27T00:51:32;3.30;99.90
52675;DHT22;38569;52.722;6.440;2024-01-27T00:53:58;3.30;99.90
52675;DHT22;38569;52.722;6.440;2024-01-27T00:56:23;3.20;99.90
52675;DHT22;38569;52.722;6.440;2024-01-27T00:58:49;3.30;99.90
52675;DHT22;38569;52.722;6.440;2024-01-27T01:01:15;3.20;99.90
52675;DHT22;38569;52.722;6.440;2024-01-27T01:03:40;3.20;99.90
52675;DHT22;38569;52.722;6.440;2024-01-27T01:06:06;3.30;99.90
52675;DHT22;38569;52.722;6.440;2024-01-27T01:08:32;3.30;99.90
52675;DHT22;38569;52.722;6.440;2024-01-27T01:10:58;3.20;99.90
52675;DHT22;38569;52.722;6.440;2024-01-27T01:13:24;3.20;99.90
52675;DHT22;38569;52.722;6.440;2024-01-27T01:15:49;3.20;99.90
52675;DHT22;38569;52.722;6.440;2024-01-27T01:18:15;3.20;99.90
52675;DHT22;38569;52.722;6.440;2024-01-27T01:20:41;3.10;99.90
52675;DHT22;38569;52.722;6.440;2024-01-27T01:23:07;3.20;99.90
52675;DHT22;38569;52.722;6.440;2024-01-27T01:25:32;3.20;99.90
52675;DHT22;38569;52.722;6.440;2024-01-27T01:27:58;3.10;99.90
52675;DHT22;38569;52.722;6.440;2024-01-27T01:30:24;3.10;99.90
52675;DHT22;38569;52.722;6.440;2024-01-27T01:32:50;3.10;99.90
52675;DHT22;38569;52.722;6.440;2024-01-27T01:35:15;3.10;99.90
52675;DHT22;38569;52.722;6.440;2024-01-27T01:37:41;3.00;99.90
52675;DHT22;38569;52.722;6.440;2024-01-27T01:40:07;3.00;99.90
52675;DHT22;38569;52.722;6.440;2024-01-27T01:42:33;3.00;99.90
52675;DHT22;38569;52.722;6.440;2024-01-27T01:44:59;3.00;99.90
52675;DHT22;38569;52.722;6.440;2024-01-27T01:47:25;2.90;99.90
52675;DHT22;38569;52.722;6.440;2024-01-27T01:49:52;2.90;99.90
52675;DHT22;38569;52.722;6.440;2024-01-27T01:52:18;2.90;99.90
52675;DHT22;38569;52.722;6.440;2024-01-27T01:54:55;3.00;99.90
52675;DHT22;38569;52.722;6.440;2024-01-27T01:57:20;3.00;99.90
52675;DHT22;38569;52.722;6.440;2024-01-27T01:59:46;3.00;99.90
52675;DHT22;38569;52.722;6.440;2024-01-27T02:02:12;2.90;99.90
52675;DHT22;38569;52.722;6.440;2024-01-27T02:04:41;2.90;99.90
52675;DHT22;38569;52.722;6.440;2024-01-27T02:07:08;2.90;99.90
52675;DHT22;38569;52.722;6.440;2024-01-27T02:09:33;2.90;99.90
52675;DHT22;38569;52.722;6.440;2024-01-27T02:11:59;2.90;99.90
52675;DHT22;38569;52.722;6.440;2024-01-27T02:14:26;2.90;99.90
52675;DHT22;38569;52.722;6.440;2024-01-27T02:16:53;2.90;99.90
52675;DHT22;38569;52.722;6.440;2024-01-27T02:19:19;2.90;99.90
52675;DHT22;38569;52.722;6.440;2024-01-27T02:21:45;2.90;99.90
52675;DHT22;38569;52.722;6.440;2024-01-27T02:24:10;2.90;99.90
52675;DHT22;38569;52.722;6.440;2024-01-27T02:26:36;2.90;99.90
52675;DHT22;38569;52.722;6.440;2024-01-27T02:29:02;2.90;99.90
52675;DHT22;38569;52.722;6.440;2024-01-27T02:31:28;2.80;99.90
52675;DHT22;38569;52.722;6.440;2024-01-27T02:33:54;2.70;99.90
52675;DHT22;38569;52.722;6.440;2024-01-27T02:36:20;2.80;99.90
52675;DHT22;38569;52.722;6.440;2024-01-27T02:38:45;2.80;99.90
52675;DHT22;38569;52.722;6.440;2024-01-27T02:41:11;2.80;99.90
52675;DHT22;38569;52.722;6.440;2024-01-27T02:43:37;2.80;99.90
52675;DHT22;38569;52.722;6.440;2024-01-27T02:46:10;2.80;99.90
52675;DHT22;38569;52.722;6.440;2024-01-27T02:48:36;2.80;99.90
52675;DHT22;38569;52.722;6.440;2024-01-27T02:51:04;2.90;99.90
52675;DHT22;38569;52.722;6.440;2024-01-27T02:53:30;2.90;99.90
52675;DHT22;38569;52.722;6.440;2024-01-27T02:55:56;2.90;99.90
52675;DHT22;38569;52.722;6.440;2024-01-27T02:58:22;2.90;99.90
52675;DHT22;38569;52.722;6.440;2024-01-27T03:00:47;2.90;99.90
52675;DHT22;38569;52.722;6.440;2024-01-27T03:03:13;2.90;99.90
52675;DHT22;38569;52.722;6.440;2024-01-27T03:05:40;2.80;99.90
52675;DHT22;38569;52.722;6.440;2024-01-27T03:08:06;2.90;99.90
52675;DHT22;38569;52.722;6.440;2024-01-27T03:10:32;2.90;99.90
52675;DHT22;38569;52.722;6.440;2024-01-27T03:12:58;2.90;99.90
52675;DHT22;38569;52.722;6.440;2024-01-27T03:15:24;2.80;99.90
52675;DHT22;38569;52.722;6.440;2024-01-27T03:17:49;2.80;99.90
52675;DHT22;38569;52.722;6.440;2024-01-27T03:20:15;2.90;99.90
52675;DHT22;38569;52.722;6.440;2024-01-27T03:22:40;2.80;99.90
52675;DHT22;38569;52.722;6.440;2024-01-27T03:25:10;2.90;99.90
52675;DHT22;38569;52.722;6.440;2024-01-27T03:27:38;2.80;99.90
52675;DHT22;38569;52.722;6.440;2024-01-27T03:30:04;2.80;99.90
52675;DHT22;38569;52.722;6.440;2024-01-27T03:32:31;2.80;99.90
52675;DHT22;38569;52.722;6.440;2024-01-27T03:35:00;2.70;99.90
52675;DHT22;38569;52.722;6.440;2024-01-27T03:37:26;2.80;99.90
52675;DHT22;38569;52.722;6.440;2024-01-27T03:39:52;2.80;99.90
52675;DHT22;38569;52.722;6.440;2024-01-27T03:42:18;2.80;99.90
52675;DHT22;38569;52.722;6.440;2024-01-27T03:44:44;2.80;99.90
52675;DHT22;38569;52.722;6.440;2024-01-27T03:47:10;2.80;99.90
52675;DHT22;38569;52.722;6.440;2024-01-27T03:49:35;2.70;99.90
52675;DHT22;38569;52.722;6.440;2024-01-27T03:52:01;2.70;99.90
52675;DHT22;38569;52.722;6.440;2024-01-27T03:54:26;2.60;99.90
52675;DHT22;38569;52.722;6.440;2024-01-27T03:56:52;2.60;99.90
52675;DHT22;38569;52.722;6.440;2024-01-27T03:59:18;2.60;99.90
52675;DHT22;38569;52.722;6.440;2024-01-27T04:01:43;2.50;99.90
52675;DHT22;38569;52.722;6.440;2024-01-27T04:04:09;2.60;99.90
52675;DHT22;38569;52.722;6.440;2024-01-27T04:06:39;2.50;99.90
52675;DHT22;38569;52.722;6.440;2024-01-27T04:09:05;2.50;99.90
52675;DHT22;38569;52.722;6.440;2024-01-27T04:11:37;2.50;99.90
52675;DHT22;38569;52.722;6.440;2024-01-27T04:14:04;2.50;99.90
52675;DHT22;38569;52.722;6.440;2024-01-27T04:16:30;2.50;99.90
52675;DHT22;38569;52.722;6.440;2024-01-27T04:18:56;2.50;99.90
52675;DHT22;38569;52.722;6.440;2024-01-27T04:21:22;2.60;99.90
52675;DHT22;38569;52.722;6.440;2024-01-27T04:23:48;2.60;99.90
52675;DHT22;38569;52.722;6.440;2024-01-27T04:26:14;2.60;99.90
52675;DHT22;38569;52.722;6.440;2024-01-27T04:28:40;2.60;99.90
52675;DHT22;38569;52.722;6.440;2024-01-27T04:31:05;2.60;99.90
52675;DHT22;38569;52.722;6.440;2024-01-27T04:33:32;2.60;99.90
52675;DHT22;38569;52.722;6.440;2024-01-27T04:35:58;2.70;99.90
52675;DHT22;38569;52.722;6.440;2024-01-27T04:38:24;2.70;99.90
52675;DHT22;38569;52.722;6.440;2024-01-27T04:40:50;2.60;99.90
52675;DHT22;38569;52.722;6.440;2024-01-27T04:43:17;2.60;99.90
52675;DHT22;38569;52.722;6.440;2024-01-27T04:45:43;2.70;99.90
52675;DHT22;38569;52.722;6.440;2024-01-27T04:48:09;2.70;99.90
52675;DHT22;38569;52.722;6.440;2024-01-27T04:50:35;2.70;99.90
52675;DHT22;38569;52.722;6.440;2024-01-27T04:53:01;2.70;99.90
52675;DHT22;38569;52.722;6.440;2024-01-27T04:55:27;2.70;99.90
52675;DHT22;38569;52.722;6.440;2024-01-27T04:57:53;2.70;99.90
52675;DHT22;38569;52.722;6.440;2024-01-27T05:00:19;2.70;99.90
52675;DHT22;38569;52.722;6.440;2024-01-27T05:02:45;2.60;99.90
52675;DHT22;38569;52.722;6.440;2024-01-27T05:05:11;2.60;99.90
52675;DHT22;38569;52.722;6.440;2024-01-27T05:07:40;2.70;99.90
52675;DHT22;38569;52.722;6.440;2024-01-27T05:10:06;2.50;99.90
52675;DHT22;38569;52.722;6.440;2024-01-27T05:12:35;2.60;99.90
52675;DHT22;38569;52.722;6.440;2024-01-27T05:15:01;2.60;99.90
52675;DHT22;38569;52.722;6.440;2024-01-27T05:17:27;2.60;99.90
52675;DHT22;38569;52.722;6.440;2024-01-27T05:19:52;2.60;99.90
52675;DHT22;38569;52.722;6.440;2024-01-27T05:22:18;2.70;99.90
52675;DHT22;38569;52.722;6.440;2024-01-27T05:24:45;2.70;99.90
52675;DHT22;38569;52.722;6.440;2024-01-27T05:27:10;2.70;99.90
52675;DHT22;38569;52.722;6.440;2024-01-27T05:29:39;2.60;99.90
52675;DHT22;38569;52.722;6.440;2024-01-27T05:32:05;2.60;99.90
52675;DHT22;38569;52.722;6.440;2024-01-27T05:34:31;2.60;99.90
52675;DHT22;38569;52.722;6.440;2024-01-27T05:36:56;2.60;99.90
52675;DHT22;38569;52.722;6.440;2024-01-27T05:39:22;2.60;99.90
52675;DHT22;38569;52.722;6.440;2024-01-27T05:41:48;2.50;99.90
52675;DHT22;38569;52.722;6.440;2024-01-27T05:44:13;2.50;99.90
52675;DHT22;38569;52.722;6.440;2024-01-27T05:46:39;2.50;99.90
52675;DHT22;38569;52.722;6.440;2024-01-27T05:49:05;2.50;99.90
52675;DHT22;38569;52.722;6.440;2024-01-27T05:51:30;2.40;99.90
52675;DHT22;38569;52.722;6.440;2024-01-27T05:53:56;2.40;99.90
52675;DHT22;38569;52.722;6.440;2024-01-27T05:56:22;2.40;99.90
52675;DHT22;38569;52.722;6.440;2024-01-27T05:58:48;2.40;99.90
52675;DHT22;38569;52.722;6.440;2024-01-27T06:01:14;2.40;99.90
52675;DHT22;38569;52.722;6.440;2024-01-27T06:03:43;2.30;99.90
52675;DHT22;38569;52.722;6.440;2024-01-27T06:06:09;2.30;99.90
52675;DHT22;38569;52.722;6.440;2024-01-27T06:08:34;2.30;99.90
52675;DHT22;38569;52.722;6.440;2024-01-27T06:11:01;2.40;99.90
52675;DHT22;38569;52.722;6.440;2024-01-27T06:13:26;2.30;99.90
52675;DHT22;38569;52.722;6.440;2024-01-27T06:15:52;2.30;99.90
52675;DHT22;38569;52.722;6.440;2024-01-27T06:18:18;2.30;99.90
52675;DHT22;38569;52.722;6.440;2024-01-27T06:20:44;2.30;99.90
52675;DHT22;38569;52.722;6.440;2024-01-27T06:23:10;2.30;99.90
52675;DHT22;38569;52.722;6.440;2024-01-27T06:25:35;2.30;99.90
52675;DHT22;38569;52.722;6.440;2024-01-27T06:28:01;2.30;99.90
52675;DHT22;38569;52.722;6.440;2024-01-27T06:30:27;2.30;99.90
52675;DHT22;38569;52.722;6.440;2024-01-27T06:32:52;2.30;99.90
52675;DHT22;38569;52.722;6.440;2024-01-27T06:35:18;2.30;99.90
52675;DHT22;38569;52.722;6.440;2024-01-27T06:37:44;2.30;99.90
52675;DHT22;38569;52.722;6.440;2024-01-27T06:40:10;2.30;99.90
52675;DHT22;38569;52.722;6.440;2024-01-27T06:42:36;2.30;99.90
52675;DHT22;38569;52.722;6.440;2024-01-27T06:45:02;2.30;99.90
52675;DHT22;38569;52.722;6.440;2024-01-27T06:47:27;2.30;99.90
52675;DHT22;38569;52.722;6.440;2024-01-27T06:49:53;2.20;99.90
52675;DHT22;38569;52.722;6.440;2024-01-27T06:52:19;2.20;99.90
52675;DHT22;38569;52.722;6.440;2024-01-27T06:54:44;2.20;99.90
52675;DHT22;38569;52.722;6.440;2024-01-27T06:57:20;2.20;99.90
52675;DHT22;38569;52.722;6.440;2024-01-27T06:59:51;2.20;99.90
52675;DHT22;38569;52.722;6.440;2024-01-27T07:02:28;2.20;99.90
52675;DHT22;38569;52.722;6.440;2024-01-27T07:04:56;2.20;99.90
52675;DHT22;38569;52.722;6.440;2024-01-27T07:07:25;2.10;99.90
52675;DHT22;38569;52.722;6.440;2024-01-27T07:09:51;2.10;99.90
52675;DHT22;38569;52.722;6.440;2024-01-27T07:12:17;2.10;99.90
52675;DHT22;38569;52.722;6.440;2024-01-27T07:14:43;2.10;99.90
52675;DHT22;38569;52.722;6.440;2024-01-27T07:17:09;2.10;99.90
52675;DHT22;38569;52.722;6.440;2024-01-27T07:19:34;2.10;99.90
52675;DHT22;38569;52.722;6.440;2024-01-27T07:22:01;2.00;99.90
52675;DHT22;38569;52.722;6.440;2024-01-27T07:24:29;2.00;99.90
52675;DHT22;38569;52.722;6.440;2024-01-27T07:26:55;2.10;99.90
52675;DHT22;38569;52.722;6.440;2024-01-27T07:29:21;2.10;99.90
52675;DHT22;38569;52.722;6.440;2024-01-27T07:31:46;2.00;99.90
52675;DHT22;38569;52.722;6.440;2024-01-27T07:34:12;2.10;99.90
52675;DHT22;38569;52.722;6.440;2024-01-27T07:36:38;2.10;99.90
52675;DHT22;38569;52.722;6.440;2024-01-27T07:39:04;2.00;99.90
52675;DHT22;38569;52.722;6.440;2024-01-27T07:41:30;2.10;99.90
52675;DHT22;38569;52.722;6.440;2024-01-27T07:43:56;2.10;99.90
52675;DHT22;38569;52.722;6.440;2024-01-27T07:46:22;2.10;99.90
52675;DHT22;38569;52.722;6.440;2024-01-27T07:48:51;2.10;99.90
52675;DHT22;38569;52.722;6.440;2024-01-27T07:51:17;2.10;99.90
52675;DHT22;38569;52.722;6.440;2024-01-27T07:53:42;2.20;99.90
52675;DHT22;38569;52.722;6.440;2024-01-27T07:56:08;2.20;99.90
52675;DHT22;38569;52.722;6.440;2024-01-27T07:58:34;2.20;99.90
52675;DHT22;38569;52.722;6.440;2024-01-27T08:00:59;2.20;99.90
52675;DHT22;38569;52.722;6.440;2024-01-27T08:03:25;2.20;99.90
52675;DHT22;38569;52.722;6.440;2024-01-27T08:05:51;2.30;99.90
52675;DHT22;38569;52.722;6.440;2024-01-27T08:08:17;2.30;99.90
52675;DHT22;38569;52.722;6.440;2024-01-27T08:10:43;2.30;99.90
52675;DHT22;38569;52.722;6.440;2024-01-27T08:13:09;2.30;99.90
52675;DHT22;38569;52.722;6.440;2024-01-27T08:15:35;2.30;99.90
52675;DHT22;38569;52.722;6.440;2024-01-27T08:18:01;2.30;99.90
52675;DHT22;38569;52.722;6.440;2024-01-27T08:20:26;2.50;99.90
52675;DHT22;38569;52.722;6.440;2024-01-27T08:22:52;2.50;99.90
52675;DHT22;38569;52.722;6.440;2024-01-27T08:25:18;2.60;99.90
52675;DHT22;38569;52.722;6.440;2024-01-27T08:27:44;2.60;99.90
52675;DHT22;38569;52.722;6.440;2024-01-27T08:30:10;2.70;99.90
52675;DHT22;38569;52.722;6.440;2024-01-27T08:32:36;2.80;99.90
52675;DHT22;38569;52.722;6.440;2024-01-27T08:35:02;2.80;99.90
52675;DHT22;38569;52.722;6.440;2024-01-27T08:37:28;2.80;99.90
52675;DHT22;38569;52.722;6.440;2024-01-27T08:39:53;2.90;99.90
52675;DHT22;38569;52.722;6.440;2024-01-27T08:42:19;3.00;99.90
52675;DHT22;38569;52.722;6.440;2024-01-27T08:44:45;3.00;99.90
52675;DHT22;38569;52.722;6.440;2024-01-27T08:47:10;3.00;99.90
52675;DHT22;38569;52.722;6.440;2024-01-27T08:49:36;3.00;99.90
52675;DHT22;38569;52.722;6.440;2024-01-27T08:52:02;3.10;99.90
52675;DHT22;38569;52.722;6.440;2024-01-27T08:54:28;3.10;99.90
52675;DHT22;38569;52.722;6.440;2024-01-27T08:56:53;3.20;99.90
52675;DHT22;38569;52.722;6.440;2024-01-27T08:59:19;3.20;99.90
52675;DHT22;38569;52.722;6.440;2024-01-27T09:01:45;3.30;99.90
52675;DHT22;38569;52.722;6.440;2024-01-27T09:04:11;3.30;99.90
52675;DHT22;38569;52.722;6.440;2024-01-27T09:06:36;3.40;99.90
52675;DHT22;38569;52.722;6.440;2024-01-27T09:09:02;3.40;99.90
52675;DHT22;38569;52.722;6.440;2024-01-27T09:11:28;3.50;99.90
52675;DHT22;38569;52.722;6.440;2024-01-27T09:13:56;3.60;99.90
52675;DHT22;38569;52.722;6.440;2024-01-27T09:16:22;3.70;99.90
52675;DHT22;38569;52.722;6.440;2024-01-27T09:18:48;3.70;99.90
52675;DHT22;38569;52.722;6.440;2024-01-27T09:21:16;3.80;99.90
52675;DHT22;38569;52.722;6.440;2024-01-27T09:23:48;3.90;99.90
52675;DHT22;38569;52.722;6.440;2024-01-27T09:26:13;3.90;99.90
52675;DHT22;38569;52.722;6.440;2024-01-27T09:28:40;4.00;99.90
52675;DHT22;38569;52.722;6.440;2024-01-27T09:31:10;4.10;99.90
52675;DHT22;38569;52.722;6.440;2024-01-27T09:33:36;4.20;99.90
52675;DHT22;38569;52.722;6.440;2024-01-27T09:36:02;4.30;99.90
52675;DHT22;38569;52.722;6.440;2024-01-27T09:38:29;4.40;99.90
52675;DHT22;38569;52.722;6.440;2024-01-27T09:40:55;4.40;99.90
52675;DHT22;38569;52.722;6.440;2024-01-27T09:43:21;4.60;99.90
52675;DHT22;38569;52.722;6.440;2024-01-27T09:45:47;5.30;99.90
52675;DHT22;38569;52.722;6.440;2024-01-27T09:48:13;6.70;99.90
52675;DHT22;38569;52.722;6.440;2024-01-27T09:50:41;7.90;99.90
52675;DHT22;38569;52.722;6.440;2024-01-27T09:53:07;8.90;99.90
52675;DHT22;38569;52.722;6.440;2024-01-27T09:55:34;9.50;99.90
52675;DHT22;38569;52.722;6.440;2024-01-27T09:58:01;10.00;99.90
52675;DHT22;38569;52.722;6.440;2024-01-27T10:00:27;10.30;99.90
52675;DHT22;38569;52.722;6.440;2024-01-27T10:02:54;10.50;99.90
52675;DHT22;38569;52.722;6.440;2024-01-27T10:05:20;10.60;99.90
52675;DHT22;38569;52.722;6.440;2024-01-27T10:07:47;10.60;99.90
52675;DHT22;38569;52.722;6.440;2024-01-27T10:10:12;11.00;99.90
52675;DHT22;38569;52.722;6.440;2024-01-27T10:12:40;11.20;99.90
52675;DHT22;38569;52.722;6.440;2024-01-27T10:15:19;11.20;99.90
52675;DHT22;38569;52.722;6.440;2024-01-27T10:17:45;11.50;99.90
52675;DHT22;38569;52.722;6.440;2024-01-27T10:20:11;11.60;99.90
52675;DHT22;38569;52.722;6.440;2024-01-27T10:22:41;11.80;99.90
52675;DHT22;38569;52.722;6.440;2024-01-27T10:25:08;11.90;99.90
52675;DHT22;38569;52.722;6.440;2024-01-27T10:27:35;12.00;99.90
52675;DHT22;38569;52.722;6.440;2024-01-27T10:30:01;12.20;99.90
52675;DHT22;38569;52.722;6.440;2024-01-27T10:32:28;12.20;99.90
52675;DHT22;38569;52.722;6.440;2024-01-27T10:35:07;12.30;99.90
52675;DHT22;38569;52.722;6.440;2024-01-27T10:37:36;12.40;99.90
52675;DHT22;38569;52.722;6.440;2024-01-27T10:40:07;12.30;99.90
52675;DHT22;38569;52.722;6.440;2024-01-27T10:42:38;12.40;99.90
52675;DHT22;38569;52.722;6.440;2024-01-27T10:45:04;12.60;99.90
52675;DHT22;38569;52.722;6.440;2024-01-27T10:47:32;12.60;99.90
52675;DHT22;38569;52.722;6.440;2024-01-27T10:49:59;12.80;99.90
52675;DHT22;38569;52.722;6.440;2024-01-27T10:52:32;13.00;99.90
52675;DHT22;38569;52.722;6.440;2024-01-27T10:55:02;13.20;99.90
52675;DHT22;38569;52.722;6.440;2024-01-27T10:57:33;13.60;99.90
52675;DHT22;38569;52.722;6.440;2024-01-27T11:00:00;13.80;99.90
52675;DHT22;38569;52.722;6.440;2024-01-27T11:02:28;13.80;99.90
52675;DHT22;38569;52.722;6.440;2024-01-27T11:05:00;13.90;99.90
52675;DHT22;38569;52.722;6.440;2024-01-27T11:07:27;13.80;99.90
52675;DHT22;38569;52.722;6.440;2024-01-27T11:09:53;14.10;99.90
52675;DHT22;38569;52.722;6.440;2024-01-27T11:12:21;14.10;99.90
52675;DHT22;38569;52.722;6.440;2024-01-27T11:14:47;14.20;99.90
52675;DHT22;38569;52.722;6.440;2024-01-27T11:17:15;13.90;99.90
52675;DHT22;38569;52.722;6.440;2024-01-27T11:19:41;14.00;99.90
52675;DHT22;38569;52.722;6.440;2024-01-27T11:22:07;14.10;99.90
52675;DHT22;38569;52.722;6.440;2024-01-27T11:24:32;14.00;99.90
52675;DHT22;38569;52.722;6.440;2024-01-27T11:27:05;13.70;99.90
52675;DHT22;38569;52.722;6.440;2024-01-27T11:29:32;13.80;99.90
52675;DHT22;38569;52.722;6.440;2024-01-27T11:32:02;13.80;99.90
52675;DHT22;38569;52.722;6.440;2024-01-27T11:34:40;13.80;99.90
52675;DHT22;38569;52.722;6.440;2024-01-27T11:37:14;13.80;99.90
52675;DHT22;38569;52.722;6.440;2024-01-27T11:39:39;13.70;99.90
52675;DHT22;38569;52.722;6.440;2024-01-27T11:42:06;13.80;99.90
52675;DHT22;38569;52.722;6.440;2024-01-27T11:44:36;13.90;99.90
52675;DHT22;38569;52.722;6.440;2024-01-27T11:47:02;14.50;99.90
52675;DHT22;38569;52.722;6.440;2024-01-27T11:49:28;14.50;99.90
52675;DHT22;38569;52.722;6.440;2024-01-27T11:51:54;14.40;99.90
52675;DHT22;38569;52.722;6.440;2024-01-27T11:54:20;14.30;99.90
52675;DHT22;38569;52.722;6.440;2024-01-27T11:56:46;14.40;99.90
52675;DHT22;38569;52.722;6.440;2024-01-27T11:59:12;14.30;99.90
52675;DHT22;38569;52.722;6.440;2024-01-27T12:01:38;14.20;99.90
52675;DHT22;38569;52.722;6.440;2024-01-27T12:04:04;14.10;99.90
52675;DHT22;38569;52.722;6.440;2024-01-27T12:06:30;13.80;99.90
52675;DHT22;38569;52.722;6.440;2024-01-27T12:08:57;13.60;99.90
52675;DHT22;38569;52.722;6.440;2024-01-27T12:11:26;13.40;99.90
52675;DHT22;38569;52.722;6.440;2024-01-27T12:13:52;13.30;99.90
52675;DHT22;38569;52.722;6.440;2024-01-27T12:16:18;12.90;99.90
52675;DHT22;38569;52.722;6.440;2024-01-27T12:18:45;12.50;99.90
52675;DHT22;38569;52.722;6.440;2024-01-27T12:21:11;12.40;99.90
52675;DHT22;38569;52.722;6.440;2024-01-27T12:23:47;12.20;99.90
52675;DHT22;38569;52.722;6.440;2024-01-27T12:26:14;12.10;99.90
52675;DHT22;38569;52.722;6.440;2024-01-27T12:28:40;12.10;99.90
52675;DHT22;38569;52.722;6.440;2024-01-27T12:31:06;12.30;99.90
52675;DHT22;38569;52.722;6.440;2024-01-27T12:33:31;12.50;99.90
52675;DHT22;38569;52.722;6.440;2024-01-27T12:35:57;12.60;99.90
52675;DHT22;38569;52.722;6.440;2024-01-27T12:38:23;12.60;99.90
52675;DHT22;38569;52.722;6.440;2024-01-27T12:40:49;12.40;99.90
52675;DHT22;38569;52.722;6.440;2024-01-27T12:43:14;12.30;99.90
52675;DHT22;38569;52.722;6.440;2024-01-27T12:45:41;12.20;99.90
52675;DHT22;38569;52.722;6.440;2024-01-27T12:48:07;12.10;99.90
52675;DHT22;38569;52.722;6.440;2024-01-27T12:50:32;12.10;99.90
52675;DHT22;38569;52.722;6.440;2024-01-27T12:52:59;11.90;99.90
52675;DHT22;38569;52.722;6.440;2024-01-27T12:55:25;11.80;99.90
52675;DHT22;38569;52.722;6.440;2024-01-27T12:57:51;11.60;99.90
52675;DHT22;38569;52.722;6.440;2024-01-27T13:00:17;11.50;99.90
52675;DHT22;38569;52.722;6.440;2024-01-27T13:02:42;11.30;99.90
52675;DHT22;38569;52.722;6.440;2024-01-27T13:05:08;11.00;99.90
52675;DHT22;38569;52.722;6.440;2024-01-27T13:07:35;10.70;99.90
52675;DHT22;38569;52.722;6.440;2024-01-27T13:10:00;10.40;99.90
52675;DHT22;38569;52.722;6.440;2024-01-27T13:12:26;10.20;99.90
52675;DHT22;38569;52.722;6.440;2024-01-27T13:14:52;10.00;99.90
52675;DHT22;38569;52.722;6.440;2024-01-27T13:17:20;10.00;99.90
52675;DHT22;38569;52.722;6.440;2024-01-27T13:19:46;9.90;99.90
52675;DHT22;38569;52.722;6.440;2024-01-27T13:22:12;9.80;99.90
52675;DHT22;38569;52.722;6.440;2024-01-27T13:24:38;9.70;99.90
52675;DHT22;38569;52.722;6.440;2024-01-27T13:27:04;9.70;99.90
52675;DHT22;38569;52.722;6.440;2024-01-27T13:29:30;9.60;99.90
52675;DHT22;38569;52.722;6.440;2024-01-27T13:31:58;9.50;99.90
52675;DHT22;38569;52.722;6.440;2024-01-27T13:34:27;9.40;99.90
52675;DHT22;38569;52.722;6.440;2024-01-27T13:36:54;9.40;99.90
52675;DHT22;38569;52.722;6.440;2024-01-27T13:39:19;9.50;99.90
52675;DHT22;38569;52.722;6.440;2024-01-27T13:41:45;9.50;99.90
52675;DHT22;38569;52.722;6.440;2024-01-27T13:44:11;9.50;99.90
52675;DHT22;38569;52.722;6.440;2024-01-27T13:46:36;9.50;99.90
52675;DHT22;38569;52.722;6.440;2024-01-27T13:49:02;9.60;99.90
52675;DHT22;38569;52.722;6.440;2024-01-27T13:51:28;9.60;99.90
52675;DHT22;38569;52.722;6.440;2024-01-27T13:53:53;9.60;99.90
52675;DHT22;38569;52.722;6.440;2024-01-27T13:56:19;9.50;99.90
52675;DHT22;38569;52.722;6.440;2024-01-27T13:58:45;9.40;99.90
52675;DHT22;38569;52.722;6.440;2024-01-27T14:01:12;9.40;99.90
52675;DHT22;38569;52.722;6.440;2024-01-27T14:03:38;9.40;99.90
52675;DHT22;38569;52.722;6.440;2024-01-27T14:06:04;9.40;99.90
52675;DHT22;38569;52.722;6.440;2024-01-27T14:08:30;9.30;99.90
52675;DHT22;38569;52.722;6.440;2024-01-27T14:10:56;9.20;99.90
52675;DHT22;38569;52.722;6.440;2024-01-27T14:13:21;9.20;99.90
52675;DHT22;38569;52.722;6.440;2024-01-27T14:15:47;9.10;99.90
52675;DHT22;38569;52.722;6.440;2024-01-27T14:18:13;9.10;99.90
52675;DHT22;38569;52.722;6.440;2024-01-27T14:20:46;9.00;99.90
52675;DHT22;38569;52.722;6.440;2024-01-27T14:23:12;9.00;99.90
52675;DHT22;38569;52.722;6.440;2024-01-27T14:25:38;9.00;99.90
52675;DHT22;38569;52.722;6.440;2024-01-27T14:28:04;8.90;99.90
52675;DHT22;38569;52.722;6.440;2024-01-27T14:30:32;8.90;99.90
52675;DHT22;38569;52.722;6.440;2024-01-27T14:32:58;8.80;99.90
52675;DHT22;38569;52.722;6.440;2024-01-27T14:35:24;8.70;99.90
52675;DHT22;38569;52.722;6.440;2024-01-27T14:37:52;8.60;99.90
52675;DHT22;38569;52.722;6.440;2024-01-27T14:40:19;8.50;99.90
52675;DHT22;38569;52.722;6.440;2024-01-27T14:42:46;8.50;99.90
52675;DHT22;38569;52.722;6.440;2024-01-27T14:45:12;8.40;99.90
52675;DHT22;38569;52.722;6.440;2024-01-27T14:47:38;8.40;99.90
52675;DHT22;38569;52.722;6.440;2024-01-27T14:50:04;8.40;99.90
52675;DHT22;38569;52.722;6.440;2024-01-27T14:52:31;8.30;99.90
52675;DHT22;38569;52.722;6.440;2024-01-27T14:54:57;8.30;99.90
52675;DHT22;38569;52.722;6.440;2024-01-27T14:57:23;8.30;99.90
52675;DHT22;38569;52.722;6.440;2024-01-27T14:59:49;8.20;99.90
52675;DHT22;38569;52.722;6.440;2024-01-27T15:02:15;8.20;99.90
52675;DHT22;38569;52.722;6.440;2024-01-27T15:04:41;8.10;99.90
52675;DHT22;38569;52.722;6.440;2024-01-27T15:07:07;8.10;99.90
52675;DHT22;38569;52.722;6.440;2024-01-27T15:09:35;8.10;99.90
52675;DHT22;38569;52.722;6.440;2024-01-27T15:12:00;8.00;99.90
52675;DHT22;38569;52.722;6.440;2024-01-27T15:14:26;7.90;99.90
52675;DHT22;38569;52.722;6.440;2024-01-27T15:16:52;7.80;99.90
52675;DHT22;38569;52.722;6.440;2024-01-27T15:19:18;7.80;99.90
52675;DHT22;38569;52.722;6.440;2024-01-27T15:21:44;7.70;99.90
52675;DHT22;38569;52.722;6.440;2024-01-27T15:24:11;7.60;99.90
52675;DHT22;38569;52.722;6.440;2024-01-27T15:26:37;7.50;99.90
52675;DHT22;38569;52.722;6.440;2024-01-27T15:29:02;7.40;99.90
52675;DHT22;38569;52.722;6.440;2024-01-27T15:31:28;7.40;99.90
52675;DHT22;38569;52.722;6.440;2024-01-27T15:33:54;7.30;99.90
52675;DHT22;38569;52.722;6.440;2024-01-27T15:36:20;7.20;99.90